Terminal Aerodrome Forecast
Issued by NWS

Home | Current Version | Previous Version | Text Only | Print | Product List | Glossary On
Versions: 1 2 3 4 5 6 7 8 9 10 11 12
000
FTUS43 KMPX 121700
TAFAXN
TAF
KAXN 121738Z 1218/1318 27006KT P6SM -SHRA SCT060 BKN120
     FM121930 28007KT P6SM BKN200
     FM130100 28005KT P6SM SKC
     FM131500 30014G20KT P6SM SKC=

USA.gov is the U.S. government's official web portal to all federal, state and local government web resources and services.